createdAt,value
2022-11-29T00:00:03.686Z,33.00
2022-11-29T00:02:33.842Z,32.80
2022-11-29T00:05:00.798Z,32.83
2022-11-29T00:07:27.749Z,33.88
2022-11-29T00:09:54.701Z,31.10
2022-11-29T00:12:21.594Z,31.27
2022-11-29T00:14:48.560Z,33.22
2022-11-29T00:17:15.498Z,32.58
2022-11-29T00:19:42.540Z,31.02
2022-11-29T00:22:09.499Z,32.45
2022-11-29T00:24:36.751Z,33.03
2022-11-29T00:27:03.962Z,32.72
2022-11-29T00:29:31.008Z,30.05
2022-11-29T00:31:57.937Z,33.10
2022-11-29T00:34:24.931Z,30.92
2022-11-29T00:36:51.911Z,30.85
2022-11-29T00:39:19.243Z,32.72
2022-11-29T00:41:46.179Z,31.33
2022-11-29T00:44:19.671Z,31.02
2022-11-29T00:46:48.023Z,30.45
2022-11-29T00:49:15.106Z,31.02
2022-11-29T00:51:42.059Z,31.77
2022-11-29T00:54:08.951Z,29.63
2022-11-29T00:56:35.862Z,30.50
2022-11-29T00:59:02.878Z,29.50
2022-11-29T01:01:29.959Z,29.92
2022-11-29T01:03:56.899Z,29.95
2022-11-29T01:06:23.832Z,28.30
2022-11-29T01:08:50.808Z,27.90
2022-11-29T01:11:25.673Z,29.13
2022-11-29T01:13:58.723Z,28.42
2022-11-29T01:16:28.589Z,27.95
2022-11-29T01:18:56.022Z,27.00
2022-11-29T01:21:24.938Z,27.23
2022-11-29T01:23:53.631Z,27.88
2022-11-29T01:26:26.187Z,26.02
2022-11-29T01:28:56.189Z,26.58
2022-11-29T01:31:27.171Z,26.67
2022-11-29T01:34:01.195Z,27.52
2022-11-29T01:36:29.240Z,27.17
2022-11-29T01:38:58.515Z,27.65
2022-11-29T01:41:29.923Z,27.40
2022-11-29T01:43:59.850Z,26.95
2022-11-29T01:46:36.068Z,26.98
2022-11-29T01:49:18.199Z,27.23
2022-11-29T01:52:16.143Z,26.83
2022-11-29T01:54:48.670Z,27.52
2022-11-29T01:57:16.811Z,20.48
2022-11-29T01:59:49.680Z,26.23
2022-11-29T02:02:27.077Z,26.90
2022-11-29T02:04:54.460Z,26.55
2022-11-29T02:07:21.415Z,28.55
2022-11-29T02:09:48.414Z,26.98
2022-11-29T02:12:46.912Z,28.05
2022-11-29T02:15:41.592Z,26.90
2022-11-29T02:19:21.635Z,27.70
2022-11-29T02:22:13.834Z,27.73
2022-11-29T02:25:25.207Z,27.92
2022-11-29T02:28:41.768Z,27.70
2022-11-29T02:31:38.737Z,29.02
2022-11-29T02:34:34.967Z,28.67
2022-11-29T02:37:47.810Z,28.48
2022-11-29T02:40:29.974Z,28.75
2022-11-29T02:43:05.434Z,28.70
2022-11-29T02:46:27.754Z,29.95
2022-11-29T02:49:18.805Z,28.73
2022-11-29T02:52:30.217Z,28.95
2022-11-29T02:55:09.522Z,28.50
2022-11-29T02:57:52.615Z,27.90
2022-11-29T03:03:09.479Z,27.73
2022-11-29T03:05:57.516Z,28.35
2022-11-29T03:09:12.091Z,28.20
2022-11-29T03:12:31.172Z,28.30
2022-11-29T03:15:21.386Z,26.67
2022-11-29T03:18:48.319Z,28.25
2022-11-29T03:21:44.865Z,27.27
2022-11-29T03:24:48.451Z,28.60
2022-11-29T03:27:35.240Z,27.02
2022-11-29T03:30:11.846Z,27.10
2022-11-29T03:32:54.895Z,27.20
2022-11-29T03:35:39.720Z,27.55
2022-11-29T03:38:41.108Z,27.98
2022-11-29T03:41:31.503Z,27.67
2022-11-29T03:44:11.348Z,26.05
2022-11-29T03:47:19.506Z,27.02
2022-11-29T03:50:04.748Z,28.17
2022-11-29T03:52:56.455Z,26.42
2022-11-29T03:55:54.484Z,26.67
2022-11-29T03:58:56.642Z,27.92
2022-11-29T04:02:13.089Z,26.52
2022-11-29T04:05:16.436Z,26.48
2022-11-29T04:07:55.294Z,25.30
2022-11-29T04:10:47.547Z,26.98
2022-11-29T04:14:05.339Z,26.77
2022-11-29T04:17:06.903Z,26.45
2022-11-29T04:20:04.630Z,27.65
2022-11-29T04:23:20.003Z,27.67
2022-11-29T04:25:58.754Z,29.50
2022-11-29T04:29:16.152Z,27.80
2022-11-29T04:32:44.713Z,27.92
2022-11-29T04:35:34.462Z,28.98
2022-11-29T04:38:47.886Z,29.38
2022-11-29T04:41:35.149Z,28.65
2022-11-29T04:44:35.194Z,28.95
2022-11-29T04:47:49.906Z,28.65
2022-11-29T04:50:37.011Z,29.10
2022-11-29T04:53:25.518Z,29.40
2022-11-29T04:56:20.467Z,29.00
2022-11-29T04:59:17.762Z,28.98
2022-11-29T05:02:04.730Z,27.85
2022-11-29T05:04:58.181Z,29.75
2022-11-29T05:11:01.131Z,27.83
2022-11-29T05:14:03.296Z,27.52
2022-11-29T05:17:21.823Z,29.38
2022-11-29T05:20:28.727Z,28.77
2022-11-29T05:23:38.805Z,30.65
2022-11-29T05:26:49.242Z,28.83
2022-11-29T05:29:31.818Z,29.65
2022-11-29T05:32:04.700Z,28.15
2022-11-29T05:37:57.098Z,27.85
2022-11-29T05:41:13.825Z,28.38
2022-11-29T05:43:52.593Z,28.33
2022-11-29T05:46:53.930Z,27.20
2022-11-29T05:50:05.740Z,27.08
2022-11-29T05:53:10.560Z,27.60
2022-11-29T05:56:02.066Z,27.55
2022-11-29T05:58:56.955Z,27.92
2022-11-29T06:02:00.295Z,28.40
2022-11-29T06:04:41.452Z,28.10
2022-11-29T06:07:22.664Z,28.67
2022-11-29T06:10:13.743Z,27.58
2022-11-29T06:12:44.921Z,26.73
2022-11-29T06:15:37.418Z,28.13
2022-11-29T06:18:28.199Z,26.52
2022-11-29T06:21:07.363Z,27.40
2022-11-29T06:24:05.978Z,27.42
2022-11-29T06:27:06.116Z,25.77
2022-11-29T06:30:20.899Z,27.45
2022-11-29T06:33:28.692Z,27.90
2022-11-29T06:36:25.610Z,27.00
2022-11-29T06:38:52.778Z,26.27
2022-11-29T06:41:23.596Z,28.50
2022-11-29T06:43:51.078Z,28.23
2022-11-29T06:46:51.759Z,28.55
2022-11-29T06:49:34.606Z,27.08
2022-11-29T06:52:37.783Z,28.83
2022-11-29T06:55:42.279Z,26.80
2022-11-29T06:58:40.189Z,27.23
2022-11-29T07:01:47.032Z,27.65
2022-11-29T07:04:45.769Z,27.80
2022-11-29T07:07:19.607Z,27.25
2022-11-29T07:09:53.784Z,28.05
2022-11-29T07:12:21.156Z,26.75
2022-11-29T07:14:48.568Z,28.20
2022-11-29T07:17:56.351Z,27.85
2022-11-29T07:21:24.573Z,28.25
2022-11-29T07:24:22.730Z,27.23
2022-11-29T07:27:04.732Z,26.48
2022-11-29T07:29:57.884Z,28.98
2022-11-29T07:32:51.435Z,28.25
2022-11-29T07:35:53.174Z,27.52
2022-11-29T07:38:56.527Z,26.55
2022-11-29T07:41:51.650Z,27.17
2022-11-29T07:44:28.369Z,28.88
2022-11-29T07:46:55.348Z,27.88
2022-11-29T07:49:22.300Z,28.27
2022-11-29T07:51:49.499Z,28.50
2022-11-29T07:54:19.165Z,28.40
2022-11-29T07:56:46.519Z,27.83
2022-11-29T07:59:14.556Z,27.30
2022-11-29T08:01:41.820Z,28.27
2022-11-29T08:04:09.978Z,27.75
2022-11-29T08:06:37.339Z,30.17
2022-11-29T08:09:05.466Z,29.55
2022-11-29T08:11:32.434Z,28.45
2022-11-29T08:14:01.871Z,28.52
2022-11-29T08:16:29.181Z,28.33
2022-11-29T08:18:56.242Z,30.23
2022-11-29T08:21:23.367Z,30.38
2022-11-29T08:23:51.456Z,29.50
2022-11-29T08:26:20.212Z,28.17
2022-11-29T08:28:53.196Z,29.58
2022-11-29T08:44:19.611Z,32.33
2022-11-29T08:47:04.899Z,30.58
2022-11-29T08:49:31.856Z,29.40
2022-11-29T08:52:17.246Z,28.85
2022-11-29T08:54:44.734Z,30.25
2022-11-29T08:59:58.791Z,28.17
2022-11-29T09:02:25.854Z,29.98
2022-11-29T09:04:52.780Z,28.13
2022-11-29T09:07:19.704Z,28.95
2022-11-29T09:09:46.686Z,30.17
2022-11-29T09:12:13.612Z,29.00
2022-11-29T09:14:40.553Z,29.42
2022-11-29T09:17:08.516Z,29.75
2022-11-29T09:19:35.417Z,30.23
2022-11-29T09:22:03.497Z,29.42
2022-11-29T09:24:30.860Z,29.20
2022-11-29T09:26:57.910Z,30.17
2022-11-29T09:29:24.781Z,29.08
2022-11-29T09:31:52.075Z,29.60
2022-11-29T09:34:19.147Z,29.27
2022-11-29T09:36:46.075Z,30.67
2022-11-29T09:39:12.999Z,29.40
2022-11-29T09:42:09.381Z,29.85
2022-11-29T09:45:09.521Z,29.67
2022-11-29T09:47:51.042Z,29.17
2022-11-29T09:50:42.991Z,28.88
2022-11-29T09:53:48.195Z,28.90
2022-11-29T09:56:30.908Z,29.50
2022-11-29T09:59:21.752Z,29.05
2022-11-29T10:02:25.195Z,29.60
2022-11-29T10:05:17.659Z,28.75
2022-11-29T10:08:00.846Z,30.23
2022-11-29T10:13:27.694Z,28.88
2022-11-29T10:16:03.146Z,29.58
2022-11-29T10:19:01.061Z,30.50
2022-11-29T10:21:37.044Z,30.88
2022-11-29T10:24:17.878Z,30.60
2022-11-29T10:26:44.846Z,30.95
2022-11-29T10:29:16.065Z,30.67
2022-11-29T10:31:49.403Z,29.80
2022-11-29T10:34:24.108Z,31.58
2022-11-29T10:37:01.261Z,31.52
2022-11-29T10:39:49.036Z,31.83
2022-11-29T10:42:43.095Z,32.03
2022-11-29T10:45:34.191Z,31.58
2022-11-29T10:48:14.043Z,33.78
2022-11-29T10:50:46.386Z,36.80
2022-11-29T10:53:26.912Z,35.65
2022-11-29T10:56:07.502Z,36.17
2022-11-29T10:58:36.338Z,37.95
2022-11-29T11:01:06.888Z,37.42
2022-11-29T11:03:52.806Z,37.78
2022-11-29T11:06:26.504Z,39.88
2022-11-29T11:09:12.346Z,39.85
2022-11-29T11:11:40.169Z,37.35
2022-11-29T11:14:34.592Z,37.47
2022-11-29T11:17:32.997Z,38.45
2022-11-29T11:20:19.437Z,37.92
2022-11-29T11:23:07.813Z,39.33
2022-11-29T11:25:39.509Z,39.08
2022-11-29T11:28:20.429Z,39.33
2022-11-29T11:31:02.776Z,38.40
2022-11-29T11:33:34.116Z,38.72
2022-11-29T11:36:14.105Z,37.95
2022-11-29T11:39:09.954Z,39.70
2022-11-29T11:42:00.529Z,39.47
2022-11-29T11:44:52.466Z,38.95
2022-11-29T11:47:31.024Z,39.75
2022-11-29T11:50:04.019Z,41.72
2022-11-29T11:55:35.721Z,39.55
2022-11-29T11:58:10.146Z,40.20
2022-11-29T12:03:55.983Z,41.38
2022-11-29T12:06:53.566Z,39.78
2022-11-29T12:09:55.684Z,41.20
2022-11-29T12:12:38.984Z,41.33
2022-11-29T12:15:29.506Z,41.72
2022-11-29T12:18:10.125Z,41.58
2022-11-29T12:20:52.742Z,40.35
2022-11-29T12:24:13.839Z,30.70
2022-11-29T12:26:59.361Z,39.80
2022-11-29T12:29:31.714Z,40.08
2022-11-29T12:32:20.330Z,39.57
2022-11-29T12:35:22.853Z,41.15
2022-11-29T12:38:10.773Z,39.15
2022-11-29T12:41:11.855Z,40.67
2022-11-29T12:44:14.047Z,39.67
2022-11-29T12:47:02.099Z,39.10
2022-11-29T12:50:20.074Z,39.55
2022-11-29T12:53:21.240Z,38.75
2022-11-29T12:55:54.166Z,38.78
2022-11-29T12:58:58.997Z,38.67
2022-11-29T13:02:03.943Z,38.40
2022-11-29T13:05:09.598Z,36.25
2022-11-29T13:07:48.775Z,36.58
2022-11-29T13:11:04.510Z,35.55
2022-11-29T13:13:47.738Z,35.05
2022-11-29T13:19:30.593Z,33.63
2022-11-29T13:22:30.000Z,34.88
2022-11-29T13:25:03.622Z,34.83
2022-11-29T13:27:42.526Z,34.55
2022-11-29T13:30:15.780Z,34.72
2022-11-29T13:32:56.209Z,34.88
2022-11-29T13:35:54.511Z,34.28
2022-11-29T13:38:37.078Z,36.78
2022-11-29T13:41:37.725Z,35.58
2022-11-29T13:44:48.889Z,34.63
2022-11-29T13:47:18.983Z,35.22
2022-11-29T13:50:27.296Z,34.15
2022-11-29T13:53:21.657Z,35.17
2022-11-29T13:56:01.160Z,35.72
2022-11-29T13:58:28.089Z,34.47
2022-11-29T14:01:09.662Z,33.00
2022-11-29T14:03:45.313Z,34.88
2022-11-29T14:06:21.726Z,34.28
2022-11-29T14:09:22.538Z,34.15
2022-11-29T14:11:58.939Z,35.10
2022-11-29T14:15:01.385Z,33.92
2022-11-29T14:18:15.950Z,33.63
2022-11-29T14:20:53.977Z,32.40
2022-11-29T14:23:44.471Z,32.75
2022-11-29T14:26:11.338Z,33.95
2022-11-29T14:28:41.608Z,36.55
2022-11-29T14:31:09.996Z,33.58
2022-11-29T14:34:05.376Z,34.00
2022-11-29T14:36:53.558Z,32.47
2022-11-29T14:39:47.870Z,33.55
2022-11-29T14:42:19.841Z,34.53
2022-11-29T14:44:56.439Z,35.22
2022-11-29T14:47:37.183Z,34.08
2022-11-29T14:50:10.748Z,34.03
2022-11-29T14:52:40.912Z,33.70
2022-11-29T14:55:29.535Z,33.42
2022-11-29T14:58:06.328Z,32.92
2022-11-29T15:00:33.330Z,33.80
2022-11-29T15:03:44.147Z,34.17
2022-11-29T15:06:26.029Z,34.17
2022-11-29T15:09:02.892Z,30.55
2022-11-29T15:12:01.435Z,31.52
2022-11-29T15:14:45.639Z,31.20
2022-11-29T15:17:43.151Z,31.92
2022-11-29T15:20:38.025Z,31.98
2022-11-29T15:23:14.930Z,32.85
2022-11-29T15:25:55.054Z,33.17
2022-11-29T15:28:26.626Z,32.60
2022-11-29T15:31:09.740Z,32.35
2022-11-29T15:36:21.044Z,30.73
2022-11-29T15:38:51.535Z,30.92
2022-11-29T15:41:31.855Z,32.30
2022-11-29T15:44:05.833Z,31.40
2022-11-29T15:46:35.753Z,31.00
2022-11-29T15:49:28.368Z,30.02
2022-11-29T15:52:02.187Z,30.47
2022-11-29T15:54:42.888Z,30.40
2022-11-29T15:57:25.075Z,29.63
2022-11-29T15:59:58.465Z,30.02
2022-11-29T16:02:31.589Z,30.00
2022-11-29T16:05:17.925Z,31.27
2022-11-29T16:07:48.022Z,30.58
2022-11-29T16:10:39.639Z,30.77
2022-11-29T16:13:39.541Z,29.23
2022-11-29T16:16:06.726Z,30.50
2022-11-29T16:18:34.905Z,29.55
2022-11-29T16:21:07.558Z,31.63
2022-11-29T16:23:42.894Z,32.35
2022-11-29T16:26:12.576Z,33.20
2022-11-29T16:28:50.684Z,31.75
2022-11-29T16:31:23.807Z,30.60
2022-11-29T16:33:52.790Z,30.63
2022-11-29T16:36:27.518Z,31.70
2022-11-29T16:39:20.566Z,31.60
2022-11-29T16:42:02.644Z,31.90
2022-11-29T16:45:32.512Z,31.70
2022-11-29T16:48:01.580Z,31.42
2022-11-29T16:50:33.132Z,32.88
2022-11-29T16:53:41.547Z,33.17
2022-11-29T16:56:38.533Z,32.53
2022-11-29T16:59:24.985Z,32.60
2022-11-29T17:01:54.685Z,32.58
2022-11-29T17:04:24.339Z,33.40
2022-11-29T17:06:56.245Z,32.63
2022-11-29T17:09:33.075Z,32.58
2022-11-29T17:12:02.882Z,32.83
2022-11-29T17:14:31.171Z,32.60
2022-11-29T17:17:02.341Z,33.72
2022-11-29T17:19:30.628Z,32.08
2022-11-29T17:21:58.561Z,32.20
2022-11-29T17:24:25.626Z,33.80
2022-11-29T17:26:52.843Z,32.05
2022-11-29T17:29:19.993Z,32.58
2022-11-29T17:31:50.494Z,31.25
2022-11-29T17:34:17.783Z,33.72
2022-11-29T17:36:45.276Z,31.27
2022-11-29T17:39:12.766Z,32.28
2022-11-29T17:41:39.701Z,31.10
2022-11-29T17:44:06.741Z,33.05
2022-11-29T17:46:36.416Z,32.67
2022-11-29T17:49:07.902Z,31.80
2022-11-29T17:51:55.459Z,33.05
2022-11-29T17:54:23.777Z,31.42
2022-11-29T17:56:51.907Z,33.10
2022-11-29T17:59:19.474Z,31.70
2022-11-29T18:01:50.042Z,32.28
2022-11-29T18:04:17.330Z,31.48
2022-11-29T18:06:49.512Z,32.28
2022-11-29T18:09:20.038Z,24.33
2022-11-29T18:11:49.897Z,32.70
2022-11-29T18:14:28.402Z,32.72
2022-11-29T18:16:55.598Z,31.65
2022-11-29T18:19:23.653Z,30.23
2022-11-29T18:21:51.550Z,31.10
2022-11-29T18:24:19.180Z,29.95
2022-11-29T18:26:46.766Z,29.38
2022-11-29T18:29:14.057Z,28.90
2022-11-29T18:31:44.954Z,30.52
2022-11-29T18:34:14.277Z,29.95
2022-11-29T18:36:45.806Z,29.38
2022-11-29T18:39:20.007Z,29.58
2022-11-29T18:41:50.201Z,29.83
2022-11-29T18:44:21.417Z,28.02
2022-11-29T18:46:50.632Z,28.55
2022-11-29T18:49:18.832Z,29.83
2022-11-29T18:51:48.295Z,29.60
2022-11-29T18:54:18.901Z,28.67
2022-11-29T18:56:46.602Z,28.80
2022-11-29T18:59:19.247Z,27.80
2022-11-29T19:01:48.726Z,27.55
2022-11-29T19:04:21.113Z,27.42
2022-11-29T19:06:49.089Z,27.02
2022-11-29T19:09:21.199Z,26.98
2022-11-29T19:11:49.725Z,26.85
2022-11-29T19:14:17.277Z,26.20
2022-11-29T19:16:47.190Z,27.70
2022-11-29T19:19:14.263Z,26.52
2022-11-29T19:21:41.974Z,28.40
2022-11-29T19:24:14.697Z,26.77
2022-11-29T19:26:45.004Z,27.05
2022-11-29T19:29:13.983Z,26.50
2022-11-29T19:31:41.242Z,25.60
2022-11-29T19:34:08.327Z,25.02
2022-11-29T19:36:37.352Z,27.10
2022-11-29T19:39:04.932Z,28.10
2022-11-29T19:41:34.556Z,26.30
2022-11-29T19:44:05.770Z,27.05
2022-11-29T19:46:40.194Z,26.13
2022-11-29T19:49:09.047Z,28.13
2022-11-29T19:51:37.187Z,27.02
2022-11-29T19:54:07.123Z,25.70
2022-11-29T19:56:34.599Z,27.08
2022-11-29T19:59:01.730Z,27.48
2022-11-29T20:01:39.760Z,27.15
2022-11-29T20:04:08.667Z,26.20
2022-11-29T20:06:35.815Z,25.90
2022-11-29T20:09:02.928Z,28.48
2022-11-29T20:11:30.050Z,26.25
2022-11-29T20:14:00.364Z,26.63
2022-11-29T20:16:29.746Z,26.48
2022-11-29T20:18:57.724Z,26.60
2022-11-29T20:21:31.795Z,26.90
2022-11-29T20:24:06.156Z,26.92
2022-11-29T20:26:37.118Z,27.90
2022-11-29T20:29:07.655Z,26.48
2022-11-29T20:31:38.675Z,26.88
2022-11-29T20:34:07.045Z,27.05
2022-11-29T20:36:48.718Z,27.45
2022-11-29T20:39:51.658Z,27.45
2022-11-29T20:42:50.289Z,28.38
2022-11-29T20:45:18.025Z,26.15
2022-11-29T20:47:52.217Z,25.98
2022-11-29T20:50:26.009Z,27.65
2022-11-29T20:53:56.041Z,26.70
2022-11-29T20:56:22.979Z,27.35
2022-11-29T20:58:50.196Z,27.65
2022-11-29T21:01:17.271Z,27.23
2022-11-29T21:03:44.263Z,26.50
2022-11-29T21:06:11.328Z,27.40
2022-11-29T21:08:38.256Z,28.65
2022-11-29T21:11:10.161Z,27.80
2022-11-29T21:13:38.114Z,26.77
2022-11-29T21:16:05.699Z,27.70
2022-11-29T21:18:33.889Z,28.77
2022-11-29T21:21:32.618Z,27.67
2022-11-29T21:24:56.519Z,29.38
2022-11-29T21:27:33.604Z,27.70
2022-11-29T21:30:05.704Z,27.60
2022-11-29T21:32:34.188Z,27.47
2022-11-29T21:35:01.165Z,28.38
2022-11-29T21:37:31.074Z,29.00
2022-11-29T21:39:58.051Z,27.55
2022-11-29T21:42:25.086Z,28.60
2022-11-29T21:44:52.113Z,27.98
2022-11-29T21:47:20.217Z,29.33
2022-11-29T21:49:47.391Z,29.02
2022-11-29T21:52:17.797Z,29.00
2022-11-29T21:54:49.216Z,28.25
2022-11-29T21:57:16.344Z,28.20
2022-11-29T21:59:43.311Z,29.48
2022-11-29T22:02:10.532Z,29.00
2022-11-29T22:04:37.528Z,28.83
2022-11-29T22:07:04.446Z,29.63
2022-11-29T22:09:31.511Z,29.83
2022-11-29T22:11:58.981Z,28.85
2022-11-29T22:27:14.423Z,33.53
2022-11-29T22:29:41.305Z,30.25
2022-11-29T22:32:08.224Z,30.65
2022-11-29T22:34:35.181Z,29.55
2022-11-29T22:37:02.084Z,30.98
2022-11-29T22:39:28.987Z,30.35
2022-11-29T22:41:55.940Z,30.38
2022-11-29T22:44:25.919Z,30.23
2022-11-29T22:46:53.039Z,30.40
2022-11-29T22:49:20.175Z,29.40
2022-11-29T22:51:47.862Z,30.17
2022-11-29T22:54:16.345Z,30.20
2022-11-29T22:56:45.203Z,30.05
2022-11-29T22:59:12.460Z,30.63
2022-11-29T23:01:41.669Z,30.27
2022-11-29T23:04:11.232Z,31.33
2022-11-29T23:06:44.569Z,31.20
2022-11-29T23:09:21.279Z,30.23
2022-11-29T23:11:55.729Z,31.17
2022-11-29T23:14:24.178Z,30.05
2022-11-29T23:16:51.887Z,30.63
2022-11-29T23:19:19.958Z,30.35
2022-11-29T23:21:47.390Z,30.23
2022-11-29T23:24:15.999Z,31.13
2022-11-29T23:26:47.387Z,31.90
2022-11-29T23:29:19.877Z,30.25
2022-11-29T23:31:50.120Z,32.22
2022-11-29T23:34:17.131Z,30.65
2022-11-29T23:36:49.645Z,31.15
2022-11-29T23:39:19.385Z,31.15
2022-11-29T23:41:47.853Z,30.35
2022-11-29T23:44:14.732Z,30.48
2022-11-29T23:46:41.660Z,32.33
2022-11-29T23:49:08.762Z,32.22
2022-11-29T23:51:35.671Z,32.38
2022-11-29T23:54:02.640Z,31.27
2022-11-29T23:56:35.064Z,31.42
2022-11-29T23:59:02.496Z,31.30
